Time;durP1;ratioP1;P1;durP2;ratioP2;P2;SDS_P1;SDS_P2;PMS_P1;PMS_P2;Temp;Humidity;BMP_temperature;BMP_pressure;BME280_temperature;BME280_humidity;BME280_pressure;Samples;Min_cycle;Max_cycle;Signal;HPM_P1;HPM_P2
2022/06/15 00:01:05;;;;;;;4.87;4.30;;;17.60;99.90;;;;;;5074815;28;20541;-48
2022/06/15 00:03:34;;;;;;;3.70;3.40;;;17.60;99.90;;;;;;5074803;28;21059;-47
2022/06/15 00:06:07;;;;;;;4.10;3.67;;;17.60;99.90;;;;;;5074247;28;20480;-50
2022/06/15 00:08:34;;;;;;;4.63;3.87;;;17.70;99.90;;;;;;5074868;28;20436;-47
2022/06/15 00:11:06;;;;;;;4.23;3.83;;;17.70;99.90;;;;;;5074520;28;20934;-51
2022/06/15 00:13:33;;;;;;;6.13;4.10;;;17.70;99.90;;;;;;5074557;28;20495;-47
2022/06/15 00:15:59;;;;;;;4.63;3.37;;;17.80;99.90;;;;;;5074569;28;20522;-51
2022/06/15 00:18:28;;;;;;;3.60;3.30;;;17.80;99.90;;;;;;5074675;28;20468;-47
2022/06/15 00:20:56;;;;;;;3.77;3.23;;;17.70;99.90;;;;;;5074229;28;20448;-48
2022/06/15 00:23:25;;;;;;;4.47;3.00;;;17.70;99.90;;;;;;5074548;28;20498;-45
2022/06/15 00:25:52;;;;;;;4.33;3.93;;;17.70;99.90;;;;;;5074563;28;20482;-47
2022/06/15 00:28:20;;;;;;;4.47;3.70;;;17.70;99.90;;;;;;5074261;28;20558;-47
2022/06/15 00:30:49;;;;;;;3.90;3.50;;;17.60;99.90;;;;;;5074502;28;20936;-49
2022/06/15 00:33:19;;;;;;;4.93;4.40;;;17.60;99.90;;;;;;5074344;28;20469;-47
2022/06/15 00:35:55;;;;;;;6.37;3.20;;;17.60;99.90;;;;;;5073966;28;20471;-47
2022/06/15 00:38:24;;;;;;;4.07;3.67;;;17.60;99.90;;;;;;5074265;28;20527;-47
2022/06/15 00:40:51;;;;;;;4.87;3.53;;;17.50;99.90;;;;;;5073760;28;20436;-47
2022/06/15 00:43:35;;;;;;;4.50;3.57;;;17.50;99.90;;;;;;5073956;28;20472;-47
2022/06/15 00:46:13;;;;;;;3.40;2.97;;;17.50;99.90;;;;;;5073868;28;20815;-47
2022/06/15 00:48:41;;;;;;;3.90;3.57;;;17.60;99.90;;;;;;5073883;28;20432;-45
2022/06/15 00:51:08;;;;;;;3.70;3.40;;;17.50;99.90;;;;;;5074003;28;20479;-47
2022/06/15 00:53:37;;;;;;;5.20;3.20;;;17.50;99.90;;;;;;5073935;28;20452;-47
2022/06/15 00:56:05;;;;;;;4.73;4.33;;;17.50;99.90;;;;;;5073703;28;20868;-47
2022/06/15 00:58:32;;;;;;;4.03;3.57;;;17.50;99.90;;;;;;5073857;28;20428;-47
2022/06/15 01:00:59;;;;;;;3.93;3.63;;;17.40;99.90;;;;;;5073583;28;20519;-47
2022/06/15 01:03:26;;;;;;;3.07;2.77;;;17.40;99.90;;;;;;5073603;28;20522;-51
2022/06/15 01:05:59;;;;;;;3.33;3.03;;;17.30;99.90;;;;;;5073498;28;20494;-48
2022/06/15 01:08:34;;;;;;;4.10;3.23;;;17.30;99.90;;;;;;5072814;28;21037;-46
2022/06/15 01:11:17;;;;;;;3.67;3.20;;;17.30;99.90;;;;;;5073561;28;20451;-47
2022/06/15 01:14:05;;;;;;;3.20;2.90;;;17.20;99.90;;;;;;5073588;28;20523;-47
2022/06/15 01:16:40;;;;;;;4.20;3.70;;;17.20;99.90;;;;;;5039968;28;20444;-47
2022/06/15 01:19:42;;;;;;;4.20;3.10;;;17.10;99.90;;;;;;5072913;28;20535;-47
2022/06/15 01:22:21;;;;;;;4.40;3.10;;;17.00;99.90;;;;;;5073303;28;20494;-47
2022/06/15 01:25:15;;;;;;;3.60;3.30;;;17.10;99.90;;;;;;5073646;28;20444;-48
2022/06/15 01:28:22;;;;;;;3.80;3.40;;;17.10;99.90;;;;;;5073195;28;20897;-47
2022/06/15 01:30:54;;;;;;;3.30;2.67;;;17.20;99.90;;;;;;5047331;28;20872;-47
2022/06/15 01:33:31;;;;;;;3.43;3.13;;;17.20;99.90;;;;;;5073414;28;20472;-47
2022/06/15 01:36:08;;;;;;;2.93;2.60;;;17.20;99.90;;;;;;5072995;28;20489;-47
2022/06/15 01:38:49;;;;;;;4.17;3.57;;;17.20;99.90;;;;;;5072766;28;20954;-49
2022/06/15 01:41:24;;;;;;;3.70;3.40;;;17.20;99.90;;;;;;5073093;28;20444;-47
2022/06/15 01:43:57;;;;;;;4.90;4.27;;;17.20;99.90;;;;;;5073207;28;20459;-47
2022/06/15 01:46:27;;;;;;;10.23;3.80;;;17.20;99.90;;;;;;5072956;28;20521;-45
2022/06/15 01:48:57;;;;;;;4.40;3.47;;;17.20;99.90;;;;;;5072418;28;20905;-45
2022/06/15 01:51:29;;;;;;;5.30;3.20;;;17.10;99.90;;;;;;5072930;28;20490;-46
2022/06/15 01:54:00;;;;;;;4.13;3.47;;;17.00;99.90;;;;;;5072544;28;20899;-47
2022/06/15 01:56:31;;;;;;;4.40;3.17;;;17.00;99.90;;;;;;5072752;28;20480;-45
2022/06/15 01:59:02;;;;;;;6.33;3.47;;;17.00;99.90;;;;;;5072239;28;20440;-45
2022/06/15 02:01:38;;;;;;;3.60;3.30;;;17.00;99.90;;;;;;5072687;28;20448;-45
2022/06/15 02:04:13;;;;;;;5.83;3.50;;;17.00;99.90;;;;;;5088690;22;20515;-47
2022/06/15 02:06:49;;;;;;;4.80;3.40;;;17.00;99.90;;;;;;5072811;28;20432;-46
2022/06/15 02:09:22;;;;;;;3.73;3.43;;;17.00;99.90;;;;;;5072144;28;20526;-46
2022/06/15 02:11:49;;;;;;;5.33;2.80;;;17.00;99.90;;;;;;5072646;28;20512;-49
2022/06/15 02:14:21;;;;;;;3.27;2.77;;;17.00;99.90;;;;;;5072313;28;20464;-47
2022/06/15 02:16:54;;;;;;;3.33;3.03;;;16.90;99.90;;;;;;5072214;28;20476;-47
2022/06/15 02:19:30;;;;;;;3.87;3.47;;;16.90;99.90;;;;;;5070851;28;20448;-47
2022/06/15 02:22:00;;;;;;;3.73;3.43;;;16.80;99.90;;;;;;5072320;28;20532;-48
2022/06/15 02:24:27;;;;;;;3.57;3.27;;;16.80;99.90;;;;;;5071725;28;20495;-49
2022/06/15 02:26:55;;;;;;;3.57;3.03;;;16.90;99.90;;;;;;5072105;28;20445;-47
2022/06/15 02:29:25;;;;;;;4.67;3.80;;;16.70;99.90;;;;;;5071765;28;20475;-50
2022/06/15 02:31:58;;;;;;;4.00;3.70;;;16.50;99.90;;;;;;5072148;28;20475;-51
2022/06/15 02:34:25;;;;;;;4.00;3.60;;;16.60;99.90;;;;;;5071745;28;20514;-47
2022/06/15 02:36:52;;;;;;;4.27;3.87;;;16.50;99.90;;;;;;5071410;28;20436;-50
2022/06/15 02:39:19;;;;;;;4.00;3.60;;;16.40;99.90;;;;;;5071465;28;20464;-47
2022/06/15 02:41:46;;;;;;;6.37;5.27;;;16.40;99.90;;;;;;5071706;28;20806;-51
2022/06/15 02:44:17;;;;;;;4.27;3.87;;;16.30;99.90;;;;;;5071833;28;20464;-48
2022/06/15 02:46:48;;;;;;;4.90;4.50;;;16.30;99.90;;;;;;5071758;28;20436;-47
2022/06/15 02:49:17;;;;;;;4.70;4.30;;;16.30;99.90;;;;;;5071220;28;20565;-49
2022/06/15 02:51:50;;;;;;;6.73;4.90;;;16.30;99.90;;;;;;5071686;28;20441;-47
2022/06/15 02:54:22;;;;;;;4.97;4.50;;;16.30;99.90;;;;;;5071601;28;20551;-47
2022/06/15 02:56:49;;;;;;;5.13;4.47;;;16.30;99.90;;;;;;5071330;28;20487;-47
2022/06/15 02:59:16;;;;;;;4.13;3.73;;;16.40;99.90;;;;;;5071010;28;20864;-47
2022/06/15 03:01:43;;;;;;;5.23;3.57;;;16.40;99.90;;;;;;5071198;28;20536;-48
2022/06/15 03:04:11;;;;;;;3.17;2.97;;;16.40;99.90;;;;;;5071180;28;20480;-47
2022/06/15 03:06:40;;;;;;;4.93;3.40;;;16.40;99.90;;;;;;5071717;28;20444;-47
2022/06/15 03:09:07;;;;;;;3.53;3.23;;;16.40;99.90;;;;;;5071185;28;20511;-48
2022/06/15 03:11:34;;;;;;;5.03;3.80;;;16.40;99.90;;;;;;5071086;28;20833;-47
2022/06/15 03:14:00;;;;;;;3.90;3.60;;;16.30;99.90;;;;;;5071493;28;20484;-50
2022/06/15 03:16:28;;;;;;;4.10;3.60;;;16.40;99.90;;;;;;5071126;28;20979;-47
2022/06/15 03:18:55;;;;;;;4.20;3.70;;;16.40;99.90;;;;;;5070755;28;20439;-50
2022/06/15 03:21:22;;;;;;;3.80;3.40;;;16.40;99.90;;;;;;5071267;28;20560;-47
2022/06/15 03:23:50;;;;;;;5.40;4.17;;;16.40;99.90;;;;;;5071072;28;20464;-46
2022/06/15 03:26:17;;;;;;;3.63;3.33;;;16.30;99.90;;;;;;5070998;28;20440;-48
2022/06/15 03:28:44;;;;;;;3.80;3.40;;;16.40;99.90;;;;;;5070647;28;20545;-47
2022/06/15 03:31:11;;;;;;;10.10;4.10;;;16.30;99.90;;;;;;5070979;28;20535;-47
2022/06/15 03:33:38;;;;;;;4.10;3.07;;;16.30;99.90;;;;;;5070896;28;20552;-47
2022/06/15 03:36:05;;;;;;;5.80;3.17;;;16.30;99.90;;;;;;5070559;28;20471;-48
2022/06/15 03:38:32;;;;;;;4.83;3.77;;;16.30;99.90;;;;;;5071092;28;20532;-47
2022/06/15 03:41:01;;;;;;;4.50;4.10;;;16.30;99.90;;;;;;5070866;28;20532;-47
2022/06/15 03:43:28;;;;;;;3.07;2.83;;;16.20;99.90;;;;;;5070949;28;20461;-50
2022/06/15 03:45:56;;;;;;;3.77;3.47;;;16.20;99.90;;;;;;5070919;28;20444;-47
2022/06/15 03:48:23;;;;;;;3.60;3.27;;;16.20;99.90;;;;;;5070649;28;20480;-47
2022/06/15 03:50:50;;;;;;;3.33;3.03;;;16.20;99.90;;;;;;5070947;28;20527;-47
2022/06/15 03:53:17;;;;;;;5.43;3.07;;;16.20;99.90;;;;;;5070877;28;20464;-48
2022/06/15 03:55:44;;;;;;;4.20;3.80;;;16.20;99.90;;;;;;5070618;28;21108;-48
2022/06/15 03:58:15;;;;;;;4.80;3.93;;;16.20;99.90;;;;;;5070794;28;20475;-50
2022/06/15 04:00:42;;;;;;;3.30;3.00;;;16.20;99.90;;;;;;5070693;28;20472;-47
2022/06/15 04:03:10;;;;;;;4.10;3.23;;;16.10;99.90;;;;;;5070735;28;20504;-50
2022/06/15 04:05:40;;;;;;;3.73;3.43;;;16.10;99.90;;;;;;5070925;28;20441;-46
2022/06/15 04:10:58;;;;;;;4.30;3.90;;;16.00;99.90;;;;;;5070924;28;20458;-47
2022/06/15 04:13:26;;;;;;;4.67;3.57;;;16.00;99.90;;;;;;5070453;28;20496;-46
2022/06/15 04:15:53;;;;;;;4.13;3.10;;;16.00;99.90;;;;;;5070938;28;20494;-47
2022/06/15 04:18:21;;;;;;;3.83;3.40;;;16.00;99.90;;;;;;5070159;28;20436;-48
2022/06/15 04:20:48;;;;;;;4.20;3.50;;;15.90;99.90;;;;;;5070656;28;20440;-47
2022/06/15 04:23:17;;;;;;;4.50;4.10;;;15.90;99.90;;;;;;5070765;28;20468;-47
2022/06/15 04:25:48;;;;;;;3.90;3.50;;;16.00;99.90;;;;;;5070565;28;20437;-47
2022/06/15 04:28:16;;;;;;;4.10;3.80;;;16.10;99.90;;;;;;5070813;28;21056;-46
2022/06/15 04:30:46;;;;;;;6.03;3.73;;;16.10;99.90;;;;;;5070290;28;20531;-50
2022/06/15 04:33:13;;;;;;;4.80;4.33;;;16.10;99.90;;;;;;5070469;28;20500;-47
2022/06/15 04:35:40;;;;;;;5.53;4.00;;;16.10;99.90;;;;;;5070243;28;20440;-47
2022/06/15 04:38:07;;;;;;;7.93;4.60;;;15.90;99.90;;;;;;5070827;28;20437;-49
2022/06/15 04:40:37;;;;;;;3.90;3.60;;;15.80;99.90;;;;;;5070376;28;20444;-47
2022/06/15 04:43:04;;;;;;;5.03;4.53;;;15.80;99.90;;;;;;5071329;28;20474;-48
2022/06/15 04:45:31;;;;;;;6.37;4.90;;;15.80;99.90;;;;;;5074031;28;20472;-47
2022/06/15 04:48:00;;;;;;;6.17;4.57;;;15.80;99.90;;;;;;5074033;28;20502;-47
2022/06/15 04:50:28;;;;;;;9.43;5.10;;;15.90;99.90;;;;;;5073519;28;20444;-47
2022/06/15 04:52:55;;;;;;;4.80;3.63;;;15.90;99.90;;;;;;5073899;28;20464;-47
2022/06/15 04:55:24;;;;;;;4.70;3.67;;;16.00;99.90;;;;;;5073738;28;20506;-47
2022/06/15 04:57:54;;;;;;;3.83;3.53;;;16.00;99.90;;;;;;5073479;28;20790;-47
2022/06/15 05:00:23;;;;;;;6.63;3.63;;;16.00;99.90;;;;;;5073718;28;20506;-49
2022/06/15 05:02:50;;;;;;;4.23;3.80;;;16.00;99.90;;;;;;5073507;28;20563;-46
2022/06/15 05:05:19;;;;;;;4.83;3.83;;;16.00;99.90;;;;;;5074013;28;20528;-47
2022/06/15 05:07:45;;;;;;;4.60;3.90;;;15.90;99.90;;;;;;5073592;28;20816;-48
2022/06/15 05:10:16;;;;;;;4.67;3.83;;;16.00;99.90;;;;;;5073250;28;20475;-47
2022/06/15 05:12:43;;;;;;;5.50;4.23;;;16.00;99.90;;;;;;5073742;28;20464;-46
2022/06/15 05:15:13;;;;;;;5.30;4.07;;;16.00;99.90;;;;;;5073545;28;20483;-50
2022/06/15 05:17:40;;;;;;;4.27;3.87;;;16.00;99.90;;;;;;5073487;28;20531;-47
2022/06/15 05:20:08;;;;;;;4.70;3.83;;;16.00;99.90;;;;;;5072800;28;20454;-47
2022/06/15 05:22:37;;;;;;;4.30;3.90;;;16.00;99.90;;;;;;5073439;28;20502;-46
2022/06/15 05:25:06;;;;;;;6.37;3.70;;;15.90;99.90;;;;;;5073441;28;20547;-48
2022/06/15 05:27:33;;;;;;;3.77;3.43;;;16.00;99.90;;;;;;5073351;28;20468;-50
2022/06/15 05:30:00;;;;;;;4.00;3.70;;;16.00;99.90;;;;;;5073404;28;20479;-47
2022/06/15 05:32:27;;;;;;;4.10;3.80;;;16.00;99.90;;;;;;5073342;28;20984;-49
2022/06/15 05:34:55;;;;;;;4.53;4.13;;;16.10;99.90;;;;;;5072880;28;20440;-47
2022/06/15 05:37:23;;;;;;;4.20;3.80;;;16.10;99.90;;;;;;5073005;28;20467;-47
2022/06/15 05:39:51;;;;;;;5.20;4.53;;;16.00;99.90;;;;;;5072535;28;20479;-46
2022/06/15 05:42:18;;;;;;;4.40;3.80;;;15.90;99.90;;;;;;5072872;28;21006;-47
2022/06/15 05:44:48;;;;;;;3.67;3.33;;;16.00;99.90;;;;;;5072928;28;20957;-46
2022/06/15 05:47:16;;;;;;;3.93;3.63;;;16.00;99.90;;;;;;5073168;28;20914;-47
2022/06/15 05:49:43;;;;;;;4.10;3.70;;;16.00;99.90;;;;;;5072407;28;20507;-47
2022/06/15 05:52:10;;;;;;;6.33;3.80;;;16.10;99.90;;;;;;5072460;28;20445;-48
2022/06/15 05:54:37;;;;;;;6.23;3.53;;;16.10;99.90;;;;;;5072889;28;20437;-47
2022/06/15 05:57:12;;;;;;;4.43;4.03;;;16.10;99.90;;;;;;5072495;28;20441;-47
2022/06/15 05:59:39;;;;;;;4.30;3.90;;;16.10;99.90;;;;;;5072293;28;20436;-49
2022/06/15 06:02:06;;;;;;;5.23;3.70;;;16.10;99.90;;;;;;5072570;28;20444;-48
2022/06/15 06:04:32;;;;;;;4.33;3.63;;;16.30;99.90;;;;;;5072684;28;20452;-46
2022/06/15 06:06:59;;;;;;;4.20;3.80;;;16.80;99.90;;;;;;5072811;28;20521;-47
2022/06/15 06:09:28;;;;;;;3.53;3.23;;;17.40;99.90;;;;;;5072261;28;20507;-46
2022/06/15 06:11:55;;;;;;;5.43;3.70;;;17.90;99.90;;;;;;5072475;28;20448;-46
2022/06/15 06:14:23;;;;;;;6.97;3.63;;;18.30;99.90;;;;;;5072095;28;20456;-49
2022/06/15 06:16:50;;;;;;;3.43;3.13;;;18.50;99.90;;;;;;5072407;28;20480;-47
2022/06/15 06:19:17;;;;;;;5.20;3.83;;;18.40;99.90;;;;;;5071314;28;20440;-47
2022/06/15 06:21:44;;;;;;;4.00;3.67;;;18.20;99.90;;;;;;5072132;28;20528;-47
2022/06/15 06:24:12;;;;;;;10.23;3.30;;;18.00;99.90;;;;;;5072202;28;20514;-47
2022/06/15 06:26:42;;;;;;;3.87;3.33;;;17.90;99.90;;;;;;5071949;28;20498;-47
2022/06/15 06:29:13;;;;;;;3.93;3.50;;;17.90;99.90;;;;;;5071706;28;20834;-48
2022/06/15 06:31:41;;;;;;;5.30;3.47;;;17.80;99.90;;;;;;5072016;28;20531;-47
2022/06/15 06:34:10;;;;;;;6.00;4.10;;;17.90;99.90;;;;;;5071967;28;20500;-46
2022/06/15 06:36:40;;;;;;;7.63;6.93;;;17.90;99.90;;;;;;5071779;28;20445;-50
2022/06/15 06:39:13;;;;;;;4.77;3.60;;;17.90;99.90;;;;;;5071514;28;20468;-48
2022/06/15 06:41:40;;;;;;;4.67;4.20;;;18.00;99.90;;;;;;5071817;28;20466;-47
2022/06/15 06:44:08;;;;;;;9.00;4.60;;;18.10;99.90;;;;;;5071620;28;20503;-49
2022/06/15 06:46:36;;;;;;;4.00;3.63;;;18.10;99.90;;;;;;5071714;28;20969;-47
2022/06/15 06:49:06;;;;;;;3.73;3.40;;;18.10;99.90;;;;;;5071380;28;20563;-47
2022/06/15 06:51:34;;;;;;;4.67;4.13;;;18.10;99.90;;;;;;5071574;28;20802;-47
2022/06/15 06:54:01;;;;;;;3.30;3.10;;;18.20;99.90;;;;;;5071117;28;20462;-49
2022/06/15 06:56:28;;;;;;;4.73;4.33;;;18.20;99.90;;;;;;5071564;28;20464;-49
2022/06/15 06:58:55;;;;;;;4.33;3.60;;;18.30;99.90;;;;;;5071374;28;20867;-47
2022/06/15 07:01:22;;;;;;;5.60;3.43;;;18.20;99.90;;;;;;5071370;28;20444;-47
2022/06/15 07:03:49;;;;;;;6.30;4.10;;;18.20;99.90;;;;;;5071356;28;20500;-48
2022/06/15 07:06:17;;;;;;;4.30;3.77;;;18.20;99.90;;;;;;5071200;28;20446;-47
2022/06/15 07:08:44;;;;;;;3.90;3.50;;;18.20;99.90;;;;;;5070986;28;20551;-47
2022/06/15 07:11:12;;;;;;;7.93;3.80;;;18.30;99.90;;;;;;5071116;28;20981;-51
2022/06/15 07:13:39;;;;;;;3.80;3.37;;;18.50;99.90;;;;;;5071455;28;20976;-48
2022/06/15 07:16:08;;;;;;;4.07;3.67;;;18.80;99.90;;;;;;5071345;28;20980;-47
2022/06/15 07:18:35;;;;;;;4.20;3.67;;;19.10;99.90;;;;;;5070728;28;20937;-47
2022/06/15 07:21:03;;;;;;;4.53;3.67;;;19.10;99.90;;;;;;5071131;28;20464;-47
2022/06/15 07:23:32;;;;;;;4.20;3.80;;;19.30;99.90;;;;;;5071395;28;20456;-49
2022/06/15 07:26:02;;;;;;;4.17;3.77;;;19.50;99.90;;;;;;5071081;28;20869;-48
2022/06/15 07:28:29;;;;;;;3.67;3.37;;;19.70;99.90;;;;;;5071153;28;20444;-47
2022/06/15 07:30:56;;;;;;;600.93;75.13;;;19.70;99.90;;;;;;5070854;28;20485;-51
2022/06/15 07:33:23;;;;;;;5.63;3.60;;;19.70;99.90;;;;;;5071045;28;21051;-47
2022/06/15 07:35:50;;;;;;;5.63;3.90;;;19.70;99.90;;;;;;5071011;28;20448;-50
2022/06/15 07:38:17;;;;;;;4.00;3.60;;;19.80;99.90;;;;;;5070919;28;20444;-48
2022/06/15 07:40:46;;;;;;;5.90;4.07;;;19.90;99.90;;;;;;5070927;28;20499;-47
2022/06/15 07:43:13;;;;;;;4.13;3.73;;;19.90;99.90;;;;;;5071075;28;20502;-50
2022/06/15 07:45:40;;;;;;;11.27;3.83;;;20.00;99.90;;;;;;5070807;28;20802;-47
2022/06/15 07:50:53;;;;;;;4.50;3.43;;;20.00;99.90;;;;;;5070897;28;20434;-47
2022/06/15 07:53:21;;;;;;;3.50;3.23;;;19.70;99.90;;;;;;5070877;28;21027;-48
2022/06/15 07:55:52;;;;;;;6.83;4.10;;;19.70;99.90;;;;;;5070812;28;20485;-50
2022/06/15 07:58:19;;;;;;;3.50;3.20;;;19.90;99.90;;;;;;5071042;28;20444;-47
2022/06/15 08:00:50;;;;;;;4.30;3.60;;;20.00;99.90;;;;;;5070917;28;20437;-47
2022/06/15 08:03:17;;;;;;;8.87;3.87;;;20.10;99.90;;;;;;5071971;28;20499;-48
2022/06/15 08:05:48;;;;;;;5.43;4.93;;;20.20;99.90;;;;;;5070885;28;20475;-47
2022/06/15 08:08:20;;;;;;;4.23;3.60;;;20.40;99.90;;;;;;5070742;28;20445;-50
2022/06/15 08:10:49;;;;;;;4.33;3.57;;;20.50;99.90;;;;;;5070840;28;20568;-49
2022/06/15 08:13:16;;;;;;;4.83;3.73;;;20.70;99.90;;;;;;5070887;28;20460;-48
2022/06/15 08:15:45;;;;;;;4.70;3.80;;;20.70;99.90;;;;;;5070858;28;20440;-47
2022/06/15 08:18:16;;;;;;;4.30;3.77;;;20.80;99.90;;;;;;5071678;28;20440;-47
2022/06/15 08:20:46;;;;;;;5.87;3.50;;;20.90;99.90;;;;;;5074476;28;20600;-47
2022/06/15 08:23:16;;;;;;;3.30;3.00;;;21.00;99.90;;;;;;5074455;28;20548;-47
2022/06/15 08:25:47;;;;;;;4.00;3.60;;;20.90;99.90;;;;;;5074275;28;20844;-47
2022/06/15 08:28:18;;;;;;;3.83;3.43;;;21.00;99.90;;;;;;5074367;28;20520;-49
2022/06/15 08:30:45;;;;;;;7.30;3.43;;;21.10;99.90;;;;;;5074081;28;20559;-47
2022/06/15 08:33:12;;;;;;;4.30;3.10;;;21.30;99.90;;;;;;5074444;28;20537;-48
2022/06/15 08:35:40;;;;;;;4.90;3.60;;;21.30;99.90;;;;;;5073794;28;20925;-49
2022/06/15 08:38:15;;;;;;;3.80;3.30;;;21.30;99.90;;;;;;5074189;28;20451;-47
2022/06/15 08:40:48;;;;;;;4.40;3.13;;;21.20;99.90;;;;;;5074070;28;20447;-51
2022/06/15 08:43:33;;;;;;;3.30;3.00;;;21.30;99.90;;;;;;5074026;28;20486;-47
2022/06/15 08:46:13;;;;;;;6.30;3.70;;;21.30;99.90;;;;;;5074105;28;20850;-47
2022/06/15 08:48:53;;;;;;;3.07;2.87;;;21.50;99.90;;;;;;5070781;28;20479;-53
2022/06/15 08:51:28;;;;;;;3.53;3.20;;;21.50;99.90;;;;;;5074325;28;20471;-48
2022/06/15 08:54:06;;;;;;;3.00;2.70;;;21.60;99.90;;;;;;5073462;28;20515;-49
2022/06/15 08:56:40;;;;;;;5.00;4.30;;;21.80;99.90;;;;;;5073792;28;20436;-46
2022/06/15 08:59:15;;;;;;;5.00;3.10;;;21.90;99.90;;;;;;5073286;28;20486;-47
2022/06/15 09:01:50;;;;;;;3.50;3.20;;;22.00;99.90;;;;;;5073032;28;21005;-50
2022/06/15 09:04:30;;;;;;;5.83;2.97;;;22.00;99.90;;;;;;5073280;28;20471;-50
2022/06/15 09:07:11;;;;;;;3.83;3.40;;;21.90;99.90;;;;;;5072382;28;20867;-47
2022/06/15 09:09:54;;;;;;;4.43;3.73;;;21.80;99.90;;;;;;5073438;28;20495;-51
2022/06/15 09:15:30;;;;;;;3.83;3.47;;;22.00;99.90;;;;;;5073739;28;20416;-47
2022/06/15 09:18:00;;;;;;;3.30;3.00;;;21.90;99.90;;;;;;5073514;28;20870;-50
2022/06/15 09:20:29;;;;;;;3.63;3.33;;;22.10;99.90;;;;;;5072960;28;20449;-48
2022/06/15 09:23:02;;;;;;;3.47;3.20;;;22.30;99.90;;;;;;5073572;28;20464;-48
2022/06/15 09:25:35;;;;;;;6.43;3.83;;;22.50;99.90;;;;;;5072131;28;21040;-50
2022/06/15 09:28:07;;;;;;;3.73;3.13;;;22.70;99.90;;;;;;5073140;28;20941;-48
2022/06/15 09:30:38;;;;;;;4.67;3.50;;;22.90;99.90;;;;;;5072188;28;20562;-48
2022/06/15 09:33:12;;;;;;;6.23;4.90;;;22.80;99.90;;;;;;5072863;28;20460;-47
2022/06/15 09:35:44;;;;;;;5.43;4.90;;;22.90;99.90;;;;;;5072668;28;20448;-47
2022/06/15 09:38:13;;;;;;;5.43;3.67;;;22.90;99.90;;;;;;5073331;28;20440;-48
2022/06/15 09:40:49;;;;;;;4.77;3.60;;;23.10;99.90;;;;;;5071631;28;20481;-51
2022/06/15 09:43:25;;;;;;;4.10;3.80;;;23.20;99.90;;;;;;5073215;28;20551;-48
2022/06/15 09:46:02;;;;;;;3.70;3.40;;;23.40;99.90;;;;;;5072905;28;20444;-47
2022/06/15 09:48:35;;;;;;;4.60;3.97;;;23.40;99.90;;;;;;5072776;28;20452;-48
2022/06/15 09:51:11;;;;;;;3.60;3.30;;;23.50;99.90;;;;;;5072713;28;21071;-47
2022/06/15 09:53:45;;;;;;;3.87;3.57;;;23.60;99.90;;;;;;5072693;28;20439;-48
2022/06/15 09:56:15;;;;;;;3.50;3.20;;;23.60;99.90;;;;;;5072431;28;20509;-48
2022/06/15 09:58:45;;;;;;;4.00;3.70;;;23.50;99.90;;;;;;5072433;28;20476;-49
2022/06/15 10:01:15;;;;;;;3.67;3.37;;;23.60;99.90;;;;;;5072749;28;20861;-47
2022/06/15 10:03:46;;;;;;;3.23;2.97;;;23.60;99.90;;;;;;5072314;28;20522;-48
2022/06/15 10:06:20;;;;;;;4.70;4.27;;;23.50;99.90;;;;;;5072426;28;20436;-47
2022/06/15 10:08:48;;;;;;;4.30;3.90;;;23.50;99.90;;;;;;5072518;28;21005;-48
2022/06/15 10:11:18;;;;;;;5.13;4.00;;;23.20;99.90;;;;;;5072656;28;20512;-47
2022/06/15 10:13:46;;;;;;;3.80;3.50;;;23.20;99.90;;;;;;5072395;28;20496;-48
2022/06/15 10:16:36;;;;;;;3.73;3.43;;;23.20;99.90;;;;;;5072339;28;20967;-48
2022/06/15 10:19:09;;;;;;;3.90;3.60;;;23.40;99.90;;;;;;5067367;28;20494;-50
2022/06/15 10:21:37;;;;;;;4.90;4.50;;;23.50;99.90;;;;;;5072327;28;20433;-47
2022/06/15 10:24:08;;;;;;;4.07;3.70;;;23.50;99.90;;;;;;5072539;28;20513;-47
2022/06/15 10:26:39;;;;;;;4.47;4.07;;;23.60;99.90;;;;;;5072032;28;20529;-47
2022/06/15 10:29:29;;;;;;;5.13;4.63;;;23.50;99.90;;;;;;5071620;28;20444;-48
2022/06/15 10:32:14;;;;;;;4.60;4.20;;;23.40;99.90;;;;;;5072324;28;20468;-47
2022/06/15 10:34:56;;;;;;;4.77;4.37;;;23.50;99.90;;;;;;5072050;28;20436;-47
2022/06/15 10:37:31;;;;;;;4.90;3.97;;;23.40;99.90;;;;;;5071538;28;20480;-48
2022/06/15 10:40:01;;;;;;;4.27;3.87;;;23.50;99.90;;;;;;5071550;28;20466;-52
2022/06/15 10:42:35;;;;;;;5.80;4.33;;;23.40;99.90;;;;;;5070354;28;20468;-48
2022/06/15 10:45:06;;;;;;;5.90;4.33;;;23.40;99.90;;;;;;5071769;28;20483;-48
2022/06/15 10:47:44;;;;;;;5.70;4.00;;;23.60;99.90;;;;;;5071907;28;20490;-49
2022/06/15 10:50:21;;;;;;;5.43;4.17;;;23.60;99.90;;;;;;5071624;28;20487;-51
2022/06/15 10:52:54;;;;;;;4.67;4.27;;;23.60;99.90;;;;;;5071557;28;20537;-48
2022/06/15 11:04:12;;;;;;;5.70;5.20;;;23.60;99.90;;;;;;5071056;28;21006;-48
2022/06/15 11:06:42;;;;;;;6.10;5.50;;;23.60;99.90;;;;;;5071489;28;20443;-48
2022/06/15 11:09:28;;;;;;;4.20;3.90;;;23.70;99.90;;;;;;5071212;28;20942;-48
2022/06/15 11:11:57;;;;;;;5.47;4.97;;;23.80;99.90;;;;;;5071506;28;20443;-48
2022/06/15 11:14:28;;;;;;;6.23;4.90;;;23.90;99.90;;;;;;5071715;28;20500;-49
2022/06/15 11:20:05;;;;;;;16.40;6.53;;;24.10;99.90;;;;;;5071269;28;20493;-48
2022/06/15 11:22:34;;;;;;;4.70;4.30;;;24.20;99.90;;;;;;5071283;28;20522;-48
2022/06/15 11:25:10;;;;;;;7.27;5.00;;;24.30;99.90;;;;;;5071445;28;20444;-47
2022/06/15 11:27:42;;;;;;;5.10;4.63;;;24.20;99.90;;;;;;5071164;28;20439;-47
2022/06/15 11:30:23;;;;;;;5.47;4.90;;;24.30;99.90;;;;;;5071142;28;20483;-48
2022/06/15 11:32:57;;;;;;;5.57;4.57;;;24.30;99.90;;;;;;5071001;28;20938;-49
2022/06/15 11:35:39;;;;;;;5.00;4.50;;;24.30;99.90;;;;;;5071040;28;20896;-48
2022/06/15 11:38:17;;;;;;;7.50;5.00;;;24.40;99.90;;;;;;5071339;28;20448;-52
2022/06/15 11:40:49;;;;;;;15.43;13.97;;;24.40;99.90;;;;;;5070944;28;20494;-48
2022/06/15 11:43:22;;;;;;;10.23;9.27;;;24.50;99.90;;;;;;5071053;28;20909;-51
2022/06/15 11:46:09;;;;;;;5.37;4.87;;;24.60;99.90;;;;;;5070994;28;20444;-47
2022/06/15 11:48:48;;;;;;;5.23;4.67;;;24.70;99.90;;;;;;5071130;28;20466;-48
2022/06/15 11:51:28;;;;;;;5.37;4.97;;;24.70;99.90;;;;;;5071167;28;20479;-48
2022/06/15 11:54:06;;;;;;;5.13;4.63;;;24.60;99.90;;;;;;5075138;28;20495;-50
2022/06/15 11:56:49;;;;;;;6.17;3.93;;;24.60;99.90;;;;;;5074922;28;20447;-48
2022/06/15 11:59:27;;;;;;;5.23;4.73;;;24.50;99.90;;;;;;5074754;28;20447;-47
2022/06/15 12:01:59;;;;;;;5.60;4.67;;;24.40;99.90;;;;;;5075031;28;20527;-48
2022/06/15 12:04:43;;;;;;;6.17;4.80;;;24.50;99.90;;;;;;5074990;28;20840;-49
2022/06/15 12:07:20;;;;;;;8.17;5.10;;;24.60;99.90;;;;;;5075271;28;20444;-48
2022/06/15 12:09:58;;;;;;;4.97;4.57;;;24.60;99.90;;;;;;5074323;28;20472;-48
2022/06/15 12:12:39;;;;;;;5.17;4.70;;;24.60;99.90;;;;;;5074774;28;20766;-48
2022/06/15 12:15:20;;;;;;;5.37;4.97;;;24.60;99.90;;;;;;5074881;28;20479;-50
2022/06/15 12:17:53;;;;;;;5.10;4.60;;;24.80;99.90;;;;;;5074986;28;20478;-48
2022/06/15 12:20:26;;;;;;;4.97;4.47;;;24.90;99.90;;;;;;5074325;28;20967;-48
2022/06/15 12:23:03;;;;;;;6.60;5.60;;;24.90;99.90;;;;;;5074732;28;20468;-48
2022/06/15 12:25:38;;;;;;;6.33;5.30;;;24.90;99.90;;;;;;5074836;28;20490;-48
2022/06/15 12:28:13;;;;;;;6.47;5.10;;;24.90;99.90;;;;;;5074468;28;20493;-47
2022/06/15 12:30:47;;;;;;;4.93;4.53;;;24.80;99.90;;;;;;5074624;28;20482;-48
2022/06/15 12:33:23;;;;;;;6.13;5.67;;;24.80;99.90;;;;;;5074419;28;20509;-49
2022/06/15 12:35:59;;;;;;;5.47;5.07;;;25.00;99.90;;;;;;5074181;28;20435;-47
2022/06/15 12:38:35;;;;;;;5.73;4.97;;;25.00;99.90;;;;;;5074284;28;20484;-49
2022/06/15 12:42:09;;;;;;;6.50;5.20;;;25.10;99.90;;;;;;5074347;28;20531;-49
2022/06/15 12:43:55;;;;;;;6.07;5.43;;;25.30;99.90;;;;;;5074096;28;20460;-48
2022/06/15 12:46:24;;;;;;;7.03;5.03;;;25.50;99.90;;;;;;5074343;28;21181;-48
2022/06/15 12:49:01;;;;;;;8.47;5.63;;;25.50;99.90;;;;;;5074148;28;20471;-48
2022/06/15 12:51:43;;;;;;;5.73;5.17;;;25.50;99.90;;;;;;5074016;28;20988;-48
2022/06/15 12:54:22;;;;;;;5.50;5.00;;;25.50;99.90;;;;;;5074051;28;20460;-48
2022/06/15 12:56:57;;;;;;;5.23;4.73;;;25.60;99.90;;;;;;5074020;28;20440;-48
2022/06/15 12:59:34;;;;;;;6.83;6.33;;;25.60;99.90;;;;;;5073588;28;20981;-48
2022/06/15 13:02:10;;;;;;;8.43;5.00;;;25.80;99.90;;;;;;5073860;28;20519;-51
2022/06/15 13:04:45;;;;;;;6.57;5.97;;;25.80;99.90;;;;;;5073338;28;20452;-48
2022/06/15 13:07:24;;;;;;;6.00;5.50;;;25.90;99.90;;;;;;5073428;28;20463;-50
2022/06/15 13:10:28;;;;;;;13.90;8.40;;;25.90;99.90;;;;;;5073624;28;20493;-47
2022/06/15 13:13:00;;;;;;;5.87;5.27;;;26.00;99.90;;;;;;5073783;28;20492;-48
2022/06/15 13:15:33;;;;;;;5.80;5.30;;;26.10;99.90;;;;;;5073592;28;20451;-48
2022/06/15 13:18:08;;;;;;;6.33;4.70;;;26.30;99.90;;;;;;5073966;28;20472;-48
2022/06/15 13:20:59;;;;;;;6.50;6.00;;;26.50;99.90;;;;;;5073655;28;20498;-48
2022/06/15 13:23:28;;;;;;;6.63;5.60;;;26.50;99.90;;;;;;5073597;28;20496;-48
2022/06/15 13:25:59;;;;;;;16.17;6.10;;;26.70;99.90;;;;;;5073511;28;20449;-48
2022/06/15 13:28:29;;;;;;;6.20;5.60;;;26.80;99.90;;;;;;5073387;28;20440;-48